Time;durP1;ratioP1;P1;durP2;ratioP2;P2;SDS_P1;SDS_P2;PMS_P1;PMS_P2;Temp;Humidity;BMP_temperature;BMP_pressure;BME280_temperature;BME280_humidity;BME280_pressure;Samples;Min_cycle;Max_cycle;Signal;HPM_P1;HPM_P2
2021/01/14 00:00:19;;;;;;;51.97;36.63;;;;;;;-1.07;100.00;97719.34;2106035;28;20236;-76
2021/01/14 00:01:20;;;;;;;55.28;37.92;;;;;;;-1.06;100.00;97707.81;2105983;28;20217;-76
2021/01/14 00:02:21;;;;;;;51.50;36.58;;;;;;;-1.11;100.00;97705.19;2097041;28;20222;-76
2021/01/14 00:03:22;;;;;;;51.13;36.13;;;;;;;-1.20;100.00;97689.97;2088442;28;20223;-79
2021/01/14 00:04:23;;;;;;;52.65;35.90;;;;;;;-1.00;100.00;97709.44;2088834;28;20242;-77
2021/01/14 00:05:24;;;;;;;54.33;36.83;;;;;;;-1.03;100.00;97704.72;2088933;28;20233;-77
2021/01/14 00:06:25;;;;;;;52.15;35.75;;;;;;;-1.09;100.00;97700.50;2096966;28;20222;-77
2021/01/14 00:07:27;;;;;;;54.83;36.13;;;;;;;-1.01;100.00;97711.28;2096948;28;20293;-77
2021/01/14 00:08:28;;;;;;;49.08;35.13;;;;;;;-1.10;100.00;97699.72;2097078;28;20226;-77
2021/01/14 00:09:29;;;;;;;50.50;35.80;;;;;;;-1.08;100.00;97702.84;2096978;28;20226;-76
2021/01/14 00:10:30;;;;;;;51.65;36.85;;;;;;;-1.22;100.00;97675.56;2088798;28;20232;-76
2021/01/14 00:11:31;;;;;;;52.50;34.83;;;;;;;-1.10;100.00;97693.69;2096294;28;20222;-77
2021/01/14 00:12:32;;;;;;;48.47;34.87;;;;;;;-1.11;100.00;97697.34;2097692;28;20275;-76
2021/01/14 00:13:33;;;;;;;51.17;36.42;;;;;;;-1.18;100.00;97687.88;2097642;28;20695;-77
2021/01/14 00:14:34;;;;;;;49.80;36.57;;;;;;;-1.25;100.00;97671.63;2097636;28;20702;-77
2021/01/14 00:15:36;;;;;;;45.42;35.83;;;;;;;-1.10;100.00;97677.97;2096810;28;20222;-77
2021/01/14 00:16:37;;;;;;;52.17;37.72;;;;;;;-1.04;100.00;97688.22;2096832;28;20677;-76
2021/01/14 00:17:37;;;;;;;50.40;36.92;;;;;;;-1.02;100.00;97690.59;2096464;28;20307;-76
2021/01/14 00:18:39;;;;;;;54.30;37.00;;;;;;;-1.03;100.00;97691.63;2088648;28;20697;-77
2021/01/14 00:19:39;;;;;;;50.45;35.58;;;;;;;-1.12;100.00;97685.31;2088359;28;20246;-76
2021/01/14 00:20:41;;;;;;;55.83;36.67;;;;;;;-1.07;100.00;97688.72;2096909;28;20256;-76
2021/01/14 00:21:42;;;;;;;53.97;35.28;;;;;;;-1.03;100.00;97679.34;2088585;28;20317;-75
2021/01/14 00:22:45;;;;;;;50.42;36.25;;;;;;;-1.00;100.00;97691.13;2088455;28;20218;-76
2021/01/14 00:23:46;;;;;;;51.85;37.50;;;;;;;-1.18;100.00;97663.56;2096912;28;20732;-76
2021/01/14 00:24:47;;;;;;;45.47;35.80;;;;;;;-1.15;100.00;97665.66;2096926;28;20634;-76
2021/01/14 00:25:48;;;;;;;57.17;37.55;;;;;;;-1.07;100.00;97685.31;2097044;28;20593;-76
2021/01/14 00:26:49;;;;;;;51.47;36.13;;;;;;;-1.15;100.00;97668.25;2096835;28;20245;-77
2021/01/14 00:27:51;;;;;;;51.03;37.70;;;;;;;-1.11;100.00;97682.44;2097072;28;20225;-76
2021/01/14 00:28:52;;;;;;;52.30;37.25;;;;;;;-1.07;100.00;97680.09;2096346;28;20585;-77
2021/01/14 00:29:53;;;;;;;53.95;36.15;;;;;;;-1.17;100.00;97663.28;2088462;28;20369;-76
2021/01/14 00:30:56;;;;;;;48.15;34.15;;;;;;;-1.03;100.00;97679.34;2096936;28;20226;-76
2021/01/14 00:31:57;;;;;;;53.70;35.30;;;;;;;-1.11;100.00;97676.41;2096811;28;20301;-77
2021/01/14 00:32:59;;;;;;;49.45;34.45;;;;;;;-1.22;100.00;97660.63;2088497;28;20684;-76
2021/01/14 00:34:00;;;;;;;49.10;35.00;;;;;;;-1.22;100.00;97659.84;2088054;28;20277;-77
2021/01/14 00:35:02;;;;;;;47.45;35.30;;;;;;;-1.08;100.00;97681.13;2084439;28;20211;-76
2021/01/14 00:36:03;;;;;;;51.53;36.90;;;;;;;-1.12;100.00;97682.69;2088483;28;20227;-76
2021/01/14 00:38:28;;;;;;;50.53;35.90;;;;;;;-1.09;100.00;97674.31;2089596;28;20237;-78
2021/01/14 00:39:29;;;;;;;49.15;34.30;;;;;;;-1.10;100.00;97670.91;2096996;28;20222;-76
2021/01/14 00:40:33;;;;;;;49.20;36.43;;;;;;;-1.20;100.00;97658.56;2096744;28;20706;-77
2021/01/14 00:41:37;;;;;;;49.22;36.10;;;;;;;-1.14;100.00;97662.78;2097048;28;20273;-76
2021/01/14 00:42:38;;;;;;;52.08;34.38;;;;;;;-1.09;100.00;97676.94;2095647;28;20234;-76
2021/01/14 00:43:39;;;;;;;46.58;34.80;;;;;;;-1.14;100.00;97668.00;2088228;28;20222;-77
2021/01/14 00:44:40;;;;;;;53.00;35.93;;;;;;;-1.17;100.00;97655.44;2096553;28;20237;-76
2021/01/14 00:45:41;;;;;;;45.85;36.08;;;;;;;-1.12;100.00;97670.41;2096721;28;20225;-76
2021/01/14 00:46:42;;;;;;;46.88;35.38;;;;;;;-1.11;100.00;97671.97;2096757;28;20240;-76
2021/01/14 00:47:43;;;;;;;52.53;36.03;;;;;;;-1.15;100.00;97666.44;2096452;28;20218;-76
2021/01/14 00:48:44;;;;;;;53.58;34.97;;;;;;;-1.08;100.00;97670.66;2096890;28;20268;-76
2021/01/14 00:49:45;;;;;;;54.77;35.17;;;;;;;-1.18;100.00;97660.94;2096672;28;20221;-75
2021/01/14 00:50:46;;;;;;;50.67;35.45;;;;;;;-1.11;100.00;97660.72;2096742;28;20590;-76
2021/01/14 00:51:47;;;;;;;52.27;36.10;;;;;;;-1.12;100.00;97667.00;2096524;28;20222;-76
2021/01/14 00:52:48;;;;;;;50.58;35.90;;;;;;;-1.13;100.00;97663.56;2096684;28;20214;-75
2021/01/14 00:53:50;;;;;;;54.20;37.60;;;;;;;-1.10;100.00;97668.31;2105741;28;20217;-75
2021/01/14 00:54:51;;;;;;;52.17;37.70;;;;;;;-1.16;100.00;97651.78;2096626;28;20276;-75
2021/01/14 00:55:52;;;;;;;51.53;37.97;;;;;;;-1.10;100.00;97667.53;2096232;28;20218;-77
2021/01/14 00:56:53;;;;;;;57.70;38.70;;;;;;;-1.07;100.00;97661.75;2096638;28;20221;-76
2021/01/14 00:57:54;;;;;;;52.43;37.83;;;;;;;-1.10;100.00;97657.84;2096504;28;20232;-76
2021/01/14 00:58:55;;;;;;;56.22;39.28;;;;;;;-1.05;100.00;97657.84;2105688;28;20225;-76
2021/01/14 00:59:56;;;;;;;53.50;38.13;;;;;;;-1.01;100.00;97658.13;2105657;28;20659;-75
2021/01/14 01:00:57;;;;;;;56.40;38.70;;;;;;;-1.05;100.00;97657.06;2096506;28;20229;-76
2021/01/14 01:01:58;;;;;;;48.80;37.47;;;;;;;-1.18;100.00;97629.53;2096741;28;20218;-76
2021/01/14 01:02:59;;;;;;;46.60;35.13;;;;;;;-1.05;100.00;97652.59;2104817;28;20581;-75
2021/01/14 01:04:00;;;;;;;49.27;35.43;;;;;;;-1.13;100.00;97645.25;2105003;28;20228;-76
2021/01/14 01:05:01;;;;;;;46.42;34.65;;;;;;;-1.07;100.00;97653.91;2096530;28;20268;-76
2021/01/14 01:06:02;;;;;;;50.73;35.73;;;;;;;-1.06;100.00;97648.41;2088223;28;20684;-76
2021/01/14 01:07:03;;;;;;;53.00;36.17;;;;;;;-1.04;100.00;97658.63;2096490;28;20449;-76
2021/01/14 01:08:04;;;;;;;52.43;37.87;;;;;;;-1.09;100.00;97648.16;2105592;28;20218;-75
2021/01/14 01:09:07;;;;;;;46.08;36.00;;;;;;;-1.07;100.00;97652.09;2096452;28;20222;-75
2021/01/14 01:10:09;;;;;;;50.95;35.58;;;;;;;-1.08;100.00;97647.91;2087941;28;20226;-76
2021/01/14 01:11:10;;;;;;;52.08;36.30;;;;;;;-1.07;100.00;97651.28;2088370;28;20226;-76
2021/01/14 01:12:11;;;;;;;45.03;34.63;;;;;;;-1.22;100.00;97624.00;2088154;28;20226;-76
2021/01/14 01:13:12;;;;;;;46.95;35.40;;;;;;;-1.17;100.00;97631.09;2096687;28;20222;-76
2021/01/14 01:14:13;;;;;;;46.27;35.73;;;;;;;-1.09;100.00;97648.94;2105513;28;20221;-74
2021/01/14 01:15:16;;;;;;;46.63;34.15;;;;;;;-1.07;100.00;97641.63;2096526;28;20585;-74
2021/01/14 01:16:18;;;;;;;42.95;34.55;;;;;;;-1.06;100.00;97645.00;2096971;28;20218;-75
2021/01/14 01:17:19;;;;;;;41.47;35.95;;;;;;;-1.08;100.00;97640.03;2105466;28;20221;-75
2021/01/14 01:18:20;;;;;;;45.95;35.55;;;;;;;-1.07;100.00;97640.81;2105489;28;20757;-75
2021/01/14 01:19:21;;;;;;;43.23;32.83;;;;;;;-1.16;100.00;97633.47;2096321;28;20649;-75
2021/01/14 01:20:22;;;;;;;43.80;35.60;;;;;;;-1.04;100.00;97648.16;2096215;28;20229;-76
2021/01/14 01:21:23;;;;;;;40.77;33.50;;;;;;;-1.06;100.00;97639.78;2095871;28;20222;-75
2021/01/14 01:22:24;;;;;;;44.25;33.38;;;;;;;-0.97;100.00;97640.88;2096590;28;20226;-75
2021/01/14 01:23:25;;;;;;;40.13;32.53;;;;;;;-0.99;100.00;97637.72;2105399;28;20300;-75
2021/01/14 01:24:27;;;;;;;35.92;31.50;;;;;;;-1.00;100.00;97633.53;2096021;28;20228;-75
2021/01/14 01:25:28;;;;;;;41.45;31.25;;;;;;;-1.06;100.00;97627.47;2088061;28;20234;-75
2021/01/14 01:26:29;;;;;;;35.97;30.95;;;;;;;-1.05;100.00;97631.66;2096384;28;20238;-76
2021/01/14 01:27:30;;;;;;;36.97;30.17;;;;;;;-0.99;100.00;97628.03;2105326;28;20236;-75
2021/01/14 01:28:31;;;;;;;39.03;31.73;;;;;;;-1.02;100.00;97633.00;2096308;28;20226;-77
2021/01/14 01:29:32;;;;;;;36.47;31.30;;;;;;;-1.04;100.00;97630.66;2096248;28;20226;-74
2021/01/14 01:30:33;;;;;;;34.78;30.75;;;;;;;-1.05;100.00;97626.44;2105319;28;20264;-78
2021/01/14 01:31:38;;;;;;;37.73;30.87;;;;;;;-1.08;100.00;97620.94;2105389;28;20221;-76
2021/01/14 01:32:39;;;;;;;34.88;29.23;;;;;;;-1.06;100.00;97624.88;2104948;28;20225;-76
2021/01/14 01:33:41;;;;;;;32.83;29.20;;;;;;;-1.09;100.00;97622.78;2105317;28;20282;-76
2021/01/14 01:34:41;;;;;;;33.78;30.10;;;;;;;-1.17;100.00;97610.97;2105345;28;20711;-75
2021/01/14 01:35:43;;;;;;;36.10;29.50;;;;;;;-1.04;100.00;97624.59;2096151;28;20598;-76
2021/01/14 01:36:49;;;;;;;33.13;29.17;;;;;;;-1.05;100.00;97617.78;2087768;28;20226;-75
2021/01/14 01:37:51;;;;;;;34.13;29.80;;;;;;;-1.07;100.00;97625.91;2097204;28;20216;-75
2021/01/14 01:38:52;;;;;;;38.47;29.85;;;;;;;-1.14;100.00;97622.72;2098641;28;20221;-76
2021/01/14 01:39:54;;;;;;;32.93;28.67;;;;;;;-1.21;100.00;97615.16;2096330;28;20279;-75
2021/01/14 01:40:55;;;;;;;36.28;29.15;;;;;;;-1.17;100.00;97621.44;2096396;28;20226;-75
2021/01/14 01:41:57;;;;;;;32.85;29.33;;;;;;;-1.19;100.00;97618.28;2096917;28;20316;-75
2021/01/14 01:42:58;;;;;;;37.83;30.20;;;;;;;-1.24;100.00;97609.63;2096090;28;20275;-75
2021/01/14 01:43:59;;;;;;;35.60;30.13;;;;;;;-1.29;100.00;97599.16;2096373;28;20218;-77
2021/01/14 01:45:00;;;;;;;33.47;29.30;;;;;;;-1.27;100.00;97610.91;2096301;28;20689;-74
2021/01/14 01:46:02;;;;;;;37.17;30.08;;;;;;;-1.33;100.00;97600.69;2096345;28;20225;-74
2021/01/14 01:47:05;;;;;;;34.10;28.95;;;;;;;-1.26;100.00;97612.50;2096242;28;20304;-76
2021/01/14 01:48:08;;;;;;;33.60;27.15;;;;;;;-1.28;100.00;97619.81;2096506;28;20279;-76
2021/01/14 01:49:08;;;;;;;32.53;27.50;;;;;;;-1.28;100.00;97614.59;2089192;28;20218;-77
2021/01/14 01:50:10;;;;;;;32.23;28.53;;;;;;;-1.30;100.00;97605.41;2088034;28;20222;-74
2021/01/14 01:51:11;;;;;;;34.97;28.23;;;;;;;-1.32;100.00;97610.88;2096803;28;20214;-76
2021/01/14 01:52:12;;;;;;;33.80;28.43;;;;;;;-1.34;100.00;97604.34;2097017;28;20236;-76
2021/01/14 01:53:13;;;;;;;31.90;28.10;;;;;;;-1.35;100.00;97603.56;2096170;28;20214;-76
2021/01/14 01:54:15;;;;;;;32.47;29.00;;;;;;;-1.27;100.00;97616.16;2086325;28;20223;-76
2021/01/14 01:55:18;;;;;;;33.83;27.33;;;;;;;-1.27;100.00;97623.22;2096144;28;20225;-76
2021/01/14 01:56:19;;;;;;;33.70;27.27;;;;;;;-1.26;100.00;97624.78;2096166;28;20226;-76
2021/01/14 01:57:20;;;;;;;33.30;29.52;;;;;;;-1.27;100.00;97624.00;2096191;28;20226;-76
2021/01/14 01:58:22;;;;;;;35.30;30.23;;;;;;;-1.29;100.00;97618.25;2105170;28;20226;-76
2021/01/14 01:59:24;;;;;;;35.95;29.77;;;;;;;-1.25;100.00;97629.75;2095631;28;20279;-77
2021/01/14 02:00:25;;;;;;;36.23;29.63;;;;;;;-1.25;100.00;97621.91;2087679;28;20305;-76
2021/01/14 02:01:27;;;;;;;36.05;32.10;;;;;;;-1.36;100.00;97609.84;2096191;28;20230;-76
2021/01/14 02:02:29;;;;;;;33.70;29.73;;;;;;;-1.27;100.00;97620.59;2096916;28;20248;-77
2021/01/14 02:03:31;;;;;;;32.28;28.77;;;;;;;-1.26;100.00;97622.16;2096125;28;20229;-76
2021/01/14 02:04:32;;;;;;;35.47;30.73;;;;;;;-1.33;100.00;97611.16;2096172;28;20222;-76
2021/01/14 02:05:33;;;;;;;34.08;29.75;;;;;;;-1.34;100.00;97607.75;2096858;28;20223;-76
2021/01/14 02:06:37;;;;;;;33.50;29.83;;;;;;;-1.25;100.00;97624.53;2096022;28;20226;-76
2021/01/14 02:07:47;;;;;;;34.38;30.05;;;;;;;-1.23;100.00;97616.41;2095755;28;20703;-76
2021/01/14 02:08:51;;;;;;;32.92;29.13;;;;;;;-1.26;100.00;97625.56;2096908;28;20218;-76
2021/01/14 02:09:54;;;;;;;35.58;29.30;;;;;;;-1.22;100.00;97621.38;2096431;28;20218;-78
2021/01/14 02:10:57;;;;;;;34.50;28.75;;;;;;;-1.26;100.00;97614.31;2096768;28;20240;-76
2021/01/14 02:12:04;;;;;;;35.75;28.23;;;;;;;-1.20;100.00;97618.53;2096802;28;20214;-76
2021/01/14 02:13:12;;;;;;;33.58;28.40;;;;;;;-1.20;100.00;97623.78;2095868;28;20226;-76
2021/01/14 02:14:17;;;;;;;36.28;28.73;;;;;;;-1.19;100.00;97620.13;2095804;28;20226;-76
2021/01/14 02:15:18;;;;;;;33.97;29.55;;;;;;;-1.29;100.00;97607.78;2095943;28;20228;-76
2021/01/14 02:16:20;;;;;;;33.17;29.35;;;;;;;-1.19;100.00;97620.13;2087327;28;20241;-76
2021/01/14 02:17:20;;;;;;;34.95;29.60;;;;;;;-1.20;100.00;97615.94;2087793;28;20320;-76
2021/01/14 02:18:22;;;;;;;32.67;29.27;;;;;;;-1.18;100.00;97611.22;2096208;28;20225;-76
2021/01/14 02:19:26;;;;;;;33.45;29.50;;;;;;;-1.21;100.00;97609.91;2096338;28;20229;-76
2021/01/14 02:20:27;;;;;;;35.28;30.20;;;;;;;-1.24;100.00;97605.16;2096829;28;20225;-76
2021/01/14 02:21:29;;;;;;;33.53;29.58;;;;;;;-1.23;100.00;97611.19;2095979;28;20234;-76
2021/01/14 02:22:37;;;;;;;33.40;29.60;;;;;;;-1.22;100.00;97610.94;2096067;28;20237;-77
2021/01/14 02:23:44;;;;;;;34.55;29.15;;;;;;;-1.24;100.00;97609.63;2104719;28;20690;-77
2021/01/14 02:24:51;;;;;;;34.58;27.65;;;;;;;-1.19;100.00;97609.66;2097713;28;20660;-77
2021/01/14 02:26:04;;;;;;;34.45;27.23;;;;;;;-1.18;100.00;97609.38;2098520;28;20230;-77
2021/01/14 02:27:07;;;;;;;30.83;26.98;;;;;;;-1.18;100.00;97613.84;2096727;28;20234;-76
2021/01/14 02:28:09;;;;;;;33.53;28.38;;;;;;;-1.11;100.00;97611.00;2096455;28;20260;-77
2021/01/14 02:29:10;;;;;;;35.40;28.10;;;;;;;-1.13;100.00;97611.22;2095724;28;20268;-76
2021/01/14 02:30:13;;;;;;;30.25;27.05;;;;;;;-1.12;100.00;97606.81;2096052;28;20240;-76
2021/01/14 02:31:15;;;;;;;33.63;27.17;;;;;;;-1.14;100.00;97599.97;2096035;28;20225;-76
2021/01/14 02:32:16;;;;;;;31.25;27.10;;;;;;;-1.21;100.00;97598.66;2096040;28;20687;-76
2021/01/14 02:33:17;;;;;;;32.58;26.75;;;;;;;-1.14;100.00;97607.81;2096013;28;20248;-77
2021/01/14 02:34:18;;;;;;;32.35;27.50;;;;;;;-1.14;100.00;97602.59;2096136;28;20276;-76
2021/01/14 02:35:19;;;;;;;36.83;28.23;;;;;;;-1.20;100.00;97598.41;2104736;28;20217;-76
2021/01/14 02:36:20;;;;;;;34.13;27.75;;;;;;;-1.19;100.00;97602.59;2095901;28;20220;-76
2021/01/14 02:37:22;;;;;;;31.98;27.27;;;;;;;-1.18;100.00;97606.78;2096193;28;20222;-76
2021/01/14 02:38:23;;;;;;;35.22;28.85;;;;;;;-1.18;100.00;97606.78;2104497;28;20696;-77
2021/01/14 02:39:24;;;;;;;34.87;27.80;;;;;;;-1.18;100.00;97601.53;2105041;28;20710;-77
2021/01/14 02:40:25;;;;;;;32.67;28.98;;;;;;;-1.19;100.00;97605.19;2104965;28;20225;-77
2021/01/14 02:41:27;;;;;;;36.30;28.87;;;;;;;-1.21;100.00;97599.44;2104754;28;20249;-76
2021/01/14 02:42:27;;;;;;;32.85;27.55;;;;;;;-1.23;100.00;97598.88;2095963;28;20226;-75
2021/01/14 02:43:29;;;;;;;32.80;28.67;;;;;;;-1.17;100.00;97605.72;2087629;28;20244;-75
2021/01/14 02:44:29;;;;;;;32.72;27.02;;;;;;;-1.16;100.00;97599.44;2087521;28;20235;-75
2021/01/14 02:45:31;;;;;;;32.07;28.07;;;;;;;-1.22;100.00;97594.44;2087700;28;20266;-75
2021/01/14 02:46:33;;;;;;;36.55;29.80;;;;;;;-1.19;100.00;97607.81;2087542;28;20261;-74
2021/01/14 02:47:35;;;;;;;36.28;29.40;;;;;;;-1.19;100.00;97602.59;2087719;28;20356;-75
2021/01/14 02:48:39;;;;;;;33.35;28.85;;;;;;;-1.19;100.00;97602.59;2096215;28;20225;-75
2021/01/14 02:49:49;;;;;;;35.00;29.05;;;;;;;-1.21;100.00;97598.66;2096109;28;20257;-77
2021/01/14 02:50:53;;;;;;;35.42;30.30;;;;;;;-1.19;100.00;97599.97;2096667;28;20210;-75
2021/01/14 02:51:56;;;;;;;33.53;29.88;;;;;;;-1.18;100.00;97604.16;2095335;28;20233;-75
2021/01/14 02:53:00;;;;;;;33.50;29.85;;;;;;;-1.18;100.00;97604.16;2096245;28;20230;-74
2021/01/14 02:54:02;;;;;;;38.05;30.83;;;;;;;-1.25;100.00;97587.91;2095900;28;20231;-74
2021/01/14 02:55:04;;;;;;;34.72;30.85;;;;;;;-1.26;100.00;97581.09;2087553;28;20721;-75
2021/01/14 02:56:06;;;;;;;34.55;30.13;;;;;;;-1.18;100.00;97609.38;2087841;28;20284;-74
2021/01/14 02:57:08;;;;;;;35.75;30.25;;;;;;;-1.35;100.00;97580.00;2087287;28;20223;-76
2021/01/14 02:58:09;;;;;;;35.78;29.88;;;;;;;-1.17;100.00;97604.94;2087258;28;20231;-75
2021/01/14 02:59:10;;;;;;;32.67;28.73;;;;;;;-1.17;100.00;97599.72;2087422;28;20265;-74
2021/01/14 03:00:12;;;;;;;31.10;27.90;;;;;;;-1.17;100.00;97602.31;2095998;28;20464;-76
2021/01/14 03:01:14;;;;;;;32.30;28.52;;;;;;;-1.14;100.00;97604.41;2095870;28;20242;-75
2021/01/14 03:02:15;;;;;;;32.05;28.38;;;;;;;-1.14;100.00;97597.34;2096102;28;20309;-74
2021/01/14 03:03:16;;;;;;;32.35;28.85;;;;;;;-1.12;100.00;97606.81;2095888;28;20242;-75
2021/01/14 03:04:17;;;;;;;36.20;29.83;;;;;;;-1.12;100.00;97599.75;2095902;28;20234;-75
2021/01/14 03:05:18;;;;;;;33.90;29.63;;;;;;;-1.11;100.00;97603.94;2096270;28;20218;-75
2021/01/14 03:06:19;;;;;;;33.72;29.23;;;;;;;-1.15;100.00;97606.25;2106620;28;20225;-75
2021/01/14 03:07:20;;;;;;;32.83;28.80;;;;;;;-1.19;100.00;97602.59;2097464;28;20226;-75
2021/01/14 03:08:21;;;;;;;31.45;28.15;;;;;;;-1.26;100.00;97603.84;2097628;28;20251;-74
2021/01/14 03:09:22;;;;;;;33.80;29.27;;;;;;;-1.19;100.00;97602.59;2097654;28;20222;-78
2021/01/14 03:10:23;;;;;;;32.60;28.90;;;;;;;-1.18;100.00;97604.16;2098209;28;20244;-75
2021/01/14 03:11:28;;;;;;;32.97;29.63;;;;;;;-1.24;100.00;97597.31;2098292;28;20279;-75
2021/01/14 03:12:29;;;;;;;35.22;28.98;;;;;;;-1.19;100.00;97599.97;2097512;28;20221;-75
2021/01/14 03:13:31;;;;;;;31.92;28.67;;;;;;;-1.21;100.00;97596.81;2097549;28;20236;-75
2021/01/14 03:14:32;;;;;;;33.58;28.67;;;;;;;-1.25;100.00;97587.13;2098193;28;20732;-74
2021/01/14 03:15:33;;;;;;;31.33;27.70;;;;;;;-1.16;100.00;97596.81;2098123;28;20571;-75
2021/01/14 03:16:37;;;;;;;34.58;28.85;;;;;;;-1.10;100.00;97605.50;2097335;28;20222;-75
2021/01/14 03:17:38;;;;;;;31.08;27.45;;;;;;;-1.15;100.00;97603.63;2097074;28;20316;-75
2021/01/14 03:18:39;;;;;;;29.88;26.80;;;;;;;-1.14;100.00;97597.34;2097410;28;20241;-75
2021/01/14 03:19:40;;;;;;;31.30;28.00;;;;;;;-1.20;100.00;97593.16;2089129;28;20258;-75
2021/01/14 03:20:41;;;;;;;32.55;28.55;;;;;;;-1.17;100.00;97597.09;2089146;28;20230;-75
2021/01/14 03:21:42;;;;;;;37.13;30.17;;;;;;;-1.19;100.00;97592.13;2088840;28;20242;-75
2021/01/14 03:22:43;;;;;;;32.20;28.90;;;;;;;-1.22;100.00;97587.38;2097454;28;20596;-75
2021/01/14 03:23:44;;;;;;;34.23;30.63;;;;;;;-1.17;100.00;97597.88;2098121;28;20222;-75
2021/01/14 03:24:45;;;;;;;33.45;29.95;;;;;;;-1.23;100.00;97574.56;2097275;28;20218;-75
2021/01/14 03:25:46;;;;;;;33.43;29.23;;;;;;;-1.26;100.00;97567.22;2089148;28;20685;-75
2021/01/14 03:26:47;;;;;;;33.72;30.02;;;;;;;-1.23;100.00;97585.81;2096874;28;20233;-75
2021/01/14 03:27:49;;;;;;;32.17;28.70;;;;;;;-1.15;100.00;97595.00;2097506;28;20238;-75
2021/01/14 03:28:50;;;;;;;31.55;28.20;;;;;;;-1.19;100.00;97575.63;2098170;28;20233;-75
2021/01/14 03:29:52;;;;;;;36.17;29.58;;;;;;;-1.12;100.00;97588.50;2098012;28;20644;-75
2021/01/14 03:30:53;;;;;;;32.80;28.73;;;;;;;-1.22;100.00;97570.91;2103391;28;20721;-75
2021/01/14 03:32:00;;;;;;;33.05;29.45;;;;;;;-1.23;100.00;97572.72;2097980;28;20295;-75
2021/01/14 03:33:00;;;;;;;31.65;27.50;;;;;;;-1.17;100.00;97578.78;2097145;28;20264;-75
2021/01/14 03:34:02;;;;;;;32.33;28.67;;;;;;;-1.10;100.00;97587.19;2097391;28;20218;-75
2021/01/14 03:35:03;;;;;;;35.00;28.05;;;;;;;-1.10;100.00;97583.78;2098104;28;20222;-75
2021/01/14 03:36:06;;;;;;;35.47;29.85;;;;;;;-1.19;100.00;97573.00;2098094;28;20712;-75
2021/01/14 03:37:07;;;;;;;31.63;27.98;;;;;;;-1.19;100.00;97565.94;2099631;28;20222;-77
2021/01/14 03:38:08;;;;;;;31.27;27.40;;;;;;;-1.15;100.00;97576.69;2097048;28;20226;-75
2021/01/14 03:39:09;;;;;;;31.13;27.77;;;;;;;-1.14;100.00;97573.81;2088916;28;20226;-76
2021/01/14 03:40:11;;;;;;;35.03;30.10;;;;;;;-1.21;100.00;97573.28;2097418;28;20256;-76
2021/01/14 03:41:13;;;;;;;37.17;29.67;;;;;;;-1.22;100.00;97563.81;2098000;28;20587;-76
2021/01/14 03:42:18;;;;;;;32.72;28.65;;;;;;;-1.23;100.00;97558.84;2097834;28;20284;-76
2021/01/14 03:43:20;;;;;;;32.13;28.58;;;;;;;-1.20;100.00;97563.59;2097150;28;20230;-76
2021/01/14 03:44:22;;;;;;;35.85;29.98;;;;;;;-1.25;100.00;97566.97;2088992;28;20222;-76
2021/01/14 03:45:22;;;;;;;33.08;28.83;;;;;;;-1.19;100.00;97576.41;2088577;28;20223;-76
2021/01/14 03:46:24;;;;;;;32.10;28.63;;;;;;;-1.19;100.00;97575.63;2088753;28;20254;-76
2021/01/14 03:47:24;;;;;;;34.90;29.38;;;;;;;-1.17;100.00;97579.56;2096870;28;20229;-76
2021/01/14 03:48:26;;;;;;;32.67;27.87;;;;;;;-1.26;100.00;97564.63;2097043;28;20229;-76
2021/01/14 03:49:26;;;;;;;32.15;28.75;;;;;;;-1.18;100.00;97580.59;2097239;28;20742;-75
2021/01/14 03:50:28;;;;;;;34.67;28.83;;;;;;;-1.23;100.00;97566.72;2097062;28;20598;-75
2021/01/14 03:51:29;;;;;;;35.10;29.08;;;;;;;-1.22;100.00;97576.91;2097190;28;20708;-75
2021/01/14 03:52:30;;;;;;;33.80;30.33;;;;;;;-1.22;100.00;97582.16;2097963;28;20283;-75
2021/01/14 03:53:31;;;;;;;34.67;28.88;;;;;;;-1.22;100.00;97582.16;2096940;28;20588;-76
2021/01/14 03:54:33;;;;;;;33.10;29.60;;;;;;;-1.25;100.00;97582.66;2097219;28;20287;-75
2021/01/14 03:55:33;;;;;;;31.65;28.25;;;;;;;-1.26;100.00;97580.31;2096931;28;20226;-76
2021/01/14 03:56:38;;;;;;;36.50;28.57;;;;;;;-1.27;100.00;97574.28;2097271;28;20686;-75
2021/01/14 03:57:40;;;;;;;30.95;27.70;;;;;;;-1.39;100.00;97563.28;2098965;28;20766;-76
2021/01/14 03:58:41;;;;;;;30.98;27.65;;;;;;;-1.31;100.00;97578.44;2096825;28;20603;-76
2021/01/14 03:59:43;;;;;;;32.35;28.83;;;;;;;-1.39;100.00;97560.66;2088821;28;20235;-76
2021/01/14 04:00:44;;;;;;;34.78;28.92;;;;;;;-1.23;100.00;97579.78;2097147;28;20222;-76
2021/01/14 04:01:45;;;;;;;30.90;27.77;;;;;;;-1.25;100.00;97581.88;2097900;28;20217;-76
2021/01/14 04:02:46;;;;;;;32.22;28.73;;;;;;;-1.26;100.00;97575.88;2097079;28;20671;-76
2021/01/14 04:03:47;;;;;;;33.47;27.73;;;;;;;-1.24;100.00;97583.44;2088872;28;20598;-76
2021/01/14 04:04:48;;;;;;;32.42;27.98;;;;;;;-1.35;100.00;97563.53;2088406;28;20639;-76
2021/01/14 04:05:49;;;;;;;30.37;27.07;;;;;;;-1.29;100.00;97573.75;2097198;28;20301;-75
2021/01/14 04:06:50;;;;;;;37.17;28.75;;;;;;;-1.29;100.00;97570.38;2097588;28;20563;-76
2021/01/14 04:07:51;;;;;;;33.90;28.50;;;;;;;-1.22;100.00;97578.75;2097783;28;20256;-75
2021/01/14 04:08:52;;;;;;;34.72;27.67;;;;;;;-1.25;100.00;97574.03;2096615;28;20222;-78
2021/01/14 04:09:53;;;;;;;36.27;29.47;;;;;;;-1.28;100.00;97575.34;2097041;28;20313;-76
2021/01/14 04:10:54;;;;;;;35.78;30.13;;;;;;;-1.35;100.00;97561.69;2096919;28;20601;-76
2021/01/14 04:11:55;;;;;;;34.53;30.20;;;;;;;-1.22;100.00;97576.13;2088615;28;20219;-76
2021/01/14 04:12:56;;;;;;;34.50;29.92;;;;;;;-1.24;100.00;97573.78;2088317;28;20276;-76
2021/01/14 04:13:59;;;;;;;33.45;29.02;;;;;;;-1.27;100.00;97571.69;2096858;28;20766;-76
2021/01/14 04:15:00;;;;;;;34.15;30.38;;;;;;;-1.25;100.00;97582.66;2084561;28;20235;-76
2021/01/14 04:16:01;;;;;;;42.53;31.52;;;;;;;-1.29;100.00;97581.63;2097192;28;20222;-76
2021/01/14 04:17:02;;;;;;;43.63;31.30;;;;;;;-1.25;100.00;97582.66;2104612;28;20671;-76
2021/01/14 04:18:04;;;;;;;37.00;29.45;;;;;;;-1.26;100.00;97580.31;2096837;28;20665;-76
2021/01/14 04:19:05;;;;;;;40.63;29.75;;;;;;;-1.23;100.00;97587.63;2097022;28;20272;-76
2021/01/14 04:20:08;;;;;;;41.17;29.10;;;;;;;-1.32;100.00;97576.88;2105833;28;20225;-76
2021/01/14 04:21:09;;;;;;;40.85;29.20;;;;;;;-1.27;100.00;97581.34;2105458;28;20642;-77
2021/01/14 04:22:10;;;;;;;41.40;29.20;;;;;;;-1.26;100.00;97585.53;2105727;28;20225;-76
2021/01/14 04:23:11;;;;;;;34.80;28.88;;;;;;;-1.30;100.00;97585.28;2096837;28;20226;-76
2021/01/14 04:24:12;;;;;;;38.80;30.00;;;;;;;-1.23;100.00;97583.19;2096685;28;20684;-77
2021/01/14 04:25:13;;;;;;;42.00;29.95;;;;;;;-1.33;100.00;97572.69;2105981;28;20271;-77
2021/01/14 04:26:17;;;;;;;47.27;28.97;;;;;;;-1.23;100.00;97580.56;2105913;28;20724;-75
2021/01/14 04:27:17;;;;;;;46.78;29.00;;;;;;;-1.24;100.00;97586.06;2105733;28;20222;-76
2021/01/14 04:28:21;;;;;;;45.97;29.53;;;;;;;-1.34;100.00;97572.94;2096765;28;20366;-76
2021/01/14 04:29:24;;;;;;;45.13;28.90;;;;;;;-1.25;100.00;97584.50;2096841;28;20226;-77
2021/01/14 04:30:24;;;;;;;43.83;29.95;;;;;;;-1.27;100.00;97590.00;2105715;28;20252;-75
2021/01/14 04:31:26;;;;;;;42.00;29.73;;;;;;;-1.34;100.00;97581.59;2096866;28;20261;-76
2021/01/14 04:32:31;;;;;;;51.20;30.38;;;;;;;-1.25;100.00;97589.72;2088596;28;20231;-77
2021/01/14 04:33:33;;;;;;;44.80;29.58;;;;;;;-1.32;100.00;97569.03;2097508;28;20222;-76
2021/01/14 04:34:33;;;;;;;45.25;30.77;;;;;;;-1.32;100.00;97569.03;2105265;28;20570;-76
2021/01/14 04:35:35;;;;;;;45.07;30.10;;;;;;;-1.33;100.00;97574.53;2096661;28;20353;-76
2021/01/14 04:36:36;;;;;;;42.80;31.02;;;;;;;-1.24;100.00;97581.63;2088685;28;20697;-75
2021/01/14 04:37:37;;;;;;;36.67;29.50;;;;;;;-1.22;100.00;97586.59;2096604;28;20359;-77
2021/01/14 04:38:38;;;;;;;45.50;29.93;;;;;;;-1.23;100.00;97579.78;2105754;28;20283;-77
2021/01/14 04:39:38;;;;;;;39.75;29.67;;;;;;;-1.24;100.00;97586.06;2105763;28;20608;-76
2021/01/14 04:40:39;;;;;;;39.43;29.93;;;;;;;-1.24;100.00;97586.06;2105826;28;20249;-76
2021/01/14 04:41:47;;;;;;;37.58;30.65;;;;;;;-1.27;100.00;97574.28;2096562;28;20273;-76